createdAt,value
2022-08-17T00:01:32.734Z,77.09
2022-08-17T00:04:19.383Z,75.82
2022-08-17T00:06:46.246Z,75.59
2022-08-17T00:09:19.170Z,76.97
2022-08-17T00:12:40.867Z,78.36
2022-08-17T00:14:36.076Z,78.59
2022-08-17T00:17:04.689Z,76.98
2022-08-17T00:19:32.685Z,78.21
2022-08-17T00:22:34.233Z,80.11
2022-08-17T00:24:47.281Z,80.53
2022-08-17T00:27:13.806Z,79.26
2022-08-17T00:29:40.525Z,78.46
2022-08-17T00:33:12.432Z,79.62
2022-08-17T00:34:53.739Z,79.03
2022-08-17T00:37:20.247Z,78.61
2022-08-17T00:39:46.784Z,79.21
2022-08-17T00:42:15.590Z,77.96
2022-08-17T00:44:42.088Z,78.90
2022-08-17T00:47:08.643Z,79.14
2022-08-17T00:49:35.107Z,78.93
2022-08-17T00:52:11.688Z,78.54
2022-08-17T00:54:42.297Z,79.39
2022-08-17T00:57:13.309Z,79.83
2022-08-17T00:59:44.651Z,79.40
2022-08-17T01:02:13.177Z,77.99
2022-08-17T01:04:39.865Z,77.71
2022-08-17T01:07:06.802Z,78.51
2022-08-17T01:09:33.722Z,78.27
2022-08-17T01:12:00.437Z,78.19
2022-08-17T01:14:26.966Z,77.14
2022-08-17T01:16:55.436Z,78.78
2022-08-17T01:19:25.280Z,77.65
2022-08-17T01:22:01.720Z,77.96
2022-08-17T01:24:28.245Z,79.13
2022-08-17T01:26:56.696Z,78.92
2022-08-17T01:29:24.798Z,80.34
2022-08-17T01:31:55.226Z,79.34
2022-08-17T01:34:21.865Z,79.76
2022-08-17T01:36:49.573Z,79.39
2022-08-17T01:39:49.006Z,79.41
2022-08-17T01:42:27.294Z,81.31
2022-08-17T01:44:59.221Z,79.19
2022-08-17T01:47:25.862Z,80.09
2022-08-17T01:49:52.354Z,79.14
2022-08-17T01:52:19.097Z,78.40
2022-08-17T01:54:47.517Z,78.72
2022-08-17T01:57:14.155Z,78.49
2022-08-17T01:59:40.692Z,79.76
2022-08-17T02:02:07.509Z,79.23
2022-08-17T02:04:34.206Z,79.45
2022-08-17T02:07:00.872Z,77.82
2022-08-17T02:09:29.856Z,78.81
2022-08-17T02:11:58.328Z,79.19
2022-08-17T02:14:25.852Z,80.30
2022-08-17T02:16:53.412Z,80.78
2022-08-17T02:19:20.772Z,81.53
2022-08-17T02:21:48.909Z,79.84
2022-08-17T02:25:01.018Z,79.91
2022-08-17T02:27:21.495Z,79.85
2022-08-17T02:29:47.956Z,81.00
2022-08-17T02:32:27.898Z,81.79
2022-08-17T02:34:55.641Z,83.10
2022-08-17T02:37:22.164Z,81.76
2022-08-17T02:39:48.772Z,81.45
2022-08-17T02:42:15.429Z,80.71
2022-08-17T02:44:42.025Z,81.90
2022-08-17T02:47:09.745Z,81.65
2022-08-17T02:49:36.943Z,83.42
2022-08-17T02:52:07.625Z,84.51
2022-08-17T02:54:39.941Z,84.68
2022-08-17T02:57:09.620Z,85.48
2022-08-17T02:59:38.979Z,85.77
2022-08-17T03:02:11.494Z,87.16
2022-08-17T03:04:38.599Z,88.32
2022-08-17T03:07:05.709Z,87.70
2022-08-17T03:09:32.444Z,86.67
2022-08-17T03:12:17.950Z,87.07
2022-08-17T03:14:44.874Z,87.04
2022-08-17T03:17:15.884Z,85.27
2022-08-17T03:19:44.468Z,84.84
2022-08-17T03:22:36.000Z,83.94
2022-08-17T03:24:57.736Z,84.86
2022-08-17T03:27:24.217Z,83.80
2022-08-17T03:29:50.690Z,84.17
2022-08-17T03:32:17.253Z,84.20
2022-08-17T03:34:43.721Z,83.29
2022-08-17T03:37:10.363Z,84.68
2022-08-17T03:39:36.902Z,84.59
2022-08-17T03:42:31.563Z,85.90
2022-08-17T03:44:59.636Z,84.39
2022-08-17T03:47:44.854Z,84.52
2022-08-17T03:50:38.770Z,83.28
2022-08-17T03:53:30.555Z,82.76
2022-08-17T03:56:23.258Z,82.50
2022-08-17T03:58:50.094Z,83.22
2022-08-17T04:01:17.702Z,83.11
2022-08-17T04:03:44.467Z,83.63
2022-08-17T04:06:10.951Z,84.68
2022-08-17T04:08:37.439Z,84.41
2022-08-17T04:11:03.975Z,84.03
2022-08-17T04:13:30.458Z,82.88
2022-08-17T04:15:59.215Z,83.89
2022-08-17T04:18:26.076Z,84.73
2022-08-17T04:20:53.728Z,83.75
2022-08-17T04:23:20.246Z,84.41
2022-08-17T04:25:49.340Z,85.05
2022-08-17T04:28:17.365Z,84.18
2022-08-17T04:30:45.268Z,82.96
2022-08-17T04:33:14.703Z,85.51
2022-08-17T04:35:47.074Z,84.41
2022-08-17T04:38:17.000Z,83.28
2022-08-17T04:41:02.657Z,84.24
2022-08-17T04:43:31.162Z,84.55
2022-08-17T04:46:00.759Z,86.02
2022-08-17T04:48:36.185Z,84.35
2022-08-17T04:51:15.759Z,84.02
2022-08-17T04:53:45.281Z,85.01
2022-08-17T04:56:16.790Z,84.54
2022-08-17T04:58:45.684Z,83.36
2022-08-17T05:01:12.546Z,82.48
2022-08-17T05:03:39.140Z,84.12
2022-08-17T05:06:05.938Z,85.19
2022-08-17T05:08:32.500Z,84.82
2022-08-17T05:11:00.250Z,85.54
2022-08-17T05:13:28.043Z,85.52
2022-08-17T05:15:56.833Z,84.81
2022-08-17T05:18:24.542Z,85.99
2022-08-17T05:20:51.322Z,85.51
2022-08-17T05:23:21.225Z,85.60
2022-08-17T05:25:50.710Z,84.95
2022-08-17T05:28:19.716Z,85.13
2022-08-17T05:30:50.968Z,86.36
2022-08-17T05:33:20.450Z,85.51
2022-08-17T05:35:49.230Z,86.33
2022-08-17T05:38:17.583Z,85.52
2022-08-17T05:40:44.863Z,87.31
2022-08-17T05:43:14.827Z,86.91
2022-08-17T05:45:55.211Z,87.47
2022-08-17T05:48:36.754Z,87.66
2022-08-17T05:51:34.118Z,87.46
2022-08-17T05:55:04.758Z,88.54
2022-08-17T05:57:55.936Z,87.72
2022-08-17T06:00:30.763Z,86.21
2022-08-17T06:03:11.970Z,87.10
2022-08-17T06:05:57.125Z,85.83
2022-08-17T06:08:34.013Z,85.22
2022-08-17T06:11:36.288Z,86.52
2022-08-17T06:14:07.633Z,85.26
2022-08-17T06:16:37.799Z,85.17
2022-08-17T06:19:17.753Z,83.69
2022-08-17T06:21:47.494Z,82.77
2022-08-17T06:24:27.447Z,83.44
2022-08-17T06:26:57.505Z,82.06
2022-08-17T06:29:41.188Z,82.62
2022-08-17T06:32:09.650Z,82.89
2022-08-17T06:34:39.698Z,83.19
2022-08-17T06:37:37.370Z,83.54
2022-08-17T06:40:22.662Z,82.23
2022-08-17T06:43:07.829Z,83.99
2022-08-17T06:45:59.208Z,83.69
2022-08-17T06:48:33.896Z,83.43
2022-08-17T06:51:11.312Z,84.01
2022-08-17T06:54:05.742Z,81.44
2022-08-17T06:56:53.511Z,82.30
2022-08-17T06:59:26.273Z,82.24
2022-08-17T07:02:05.313Z,82.77
2022-08-17T07:04:33.962Z,82.48
2022-08-17T07:07:27.100Z,83.17
2022-08-17T07:09:56.484Z,83.85
2022-08-17T07:12:26.957Z,84.87
2022-08-17T07:14:59.445Z,82.94
2022-08-17T07:17:47.508Z,80.77
2022-08-17T07:20:17.766Z,80.60
2022-08-17T07:23:15.817Z,80.27
2022-08-17T07:25:42.286Z,80.19
2022-08-17T07:28:08.866Z,79.07
2022-08-17T07:30:47.049Z,78.63
2022-08-17T07:33:27.825Z,78.38
2022-08-17T07:35:55.303Z,77.17
2022-08-17T07:38:26.749Z,77.25
2022-08-17T07:41:03.725Z,76.14
2022-08-17T07:43:39.542Z,76.15
2022-08-17T07:46:53.966Z,74.63
2022-08-17T07:49:24.392Z,73.10
2022-08-17T07:51:51.224Z,72.19
2022-08-17T07:54:21.565Z,70.54
2022-08-17T07:57:04.000Z,69.77
2022-08-17T07:59:35.825Z,69.83
2022-08-17T08:02:18.037Z,68.43
2022-08-17T08:05:06.738Z,68.02
2022-08-17T08:07:58.043Z,68.49
2022-08-17T08:10:35.674Z,67.52
2022-08-17T08:13:23.508Z,67.13
2022-08-17T08:15:54.766Z,67.67
2022-08-17T08:18:53.871Z,67.02
2022-08-17T08:21:34.353Z,66.88
2022-08-17T08:24:06.877Z,66.97
2022-08-17T08:27:02.188Z,67.04
2022-08-17T08:29:59.667Z,67.53
2022-08-17T08:32:48.640Z,65.92
2022-08-17T08:35:33.786Z,66.12
2022-08-17T08:38:14.900Z,66.44
2022-08-17T08:40:53.370Z,64.44
2022-08-17T08:43:41.306Z,63.45
2022-08-17T08:46:31.212Z,64.99
2022-08-17T08:49:39.269Z,65.02
2022-08-17T08:52:40.281Z,66.11
2022-08-17T08:55:20.376Z,64.25
2022-08-17T08:57:48.958Z,64.95
2022-08-17T09:00:19.230Z,63.20
2022-08-17T09:03:17.519Z,62.15
2022-08-17T09:06:06.844Z,61.79
2022-08-17T09:09:11.913Z,59.30
2022-08-17T09:12:01.357Z,58.43
2022-08-17T09:14:47.181Z,58.72
2022-08-17T09:17:18.464Z,57.14
2022-08-17T09:19:51.770Z,56.69
2022-08-17T09:22:33.398Z,57.32
2022-08-17T09:25:07.031Z,57.81
2022-08-17T09:27:44.306Z,59.12
2022-08-17T09:30:11.938Z,59.72
2022-08-17T09:32:43.998Z,59.54
2022-08-17T09:35:41.656Z,58.00
2022-08-17T09:38:20.304Z,59.05
2022-08-17T09:41:02.129Z,57.07
2022-08-17T09:43:31.688Z,55.18
2022-08-17T09:46:05.589Z,52.95
2022-08-17T09:48:55.421Z,52.09
2022-08-17T09:51:27.995Z,51.61
2022-08-17T09:54:01.737Z,52.59
2022-08-17T09:56:56.553Z,49.83
2022-08-17T10:00:16.103Z,52.34
2022-08-17T10:02:57.592Z,51.23
2022-08-17T10:05:28.414Z,49.13
2022-08-17T10:08:09.361Z,47.28
2022-08-17T10:10:43.456Z,50.31
2022-08-17T10:13:52.695Z,51.03
2022-08-17T10:16:46.503Z,49.00
2022-08-17T10:19:33.586Z,48.46
2022-08-17T10:22:34.914Z,48.82
2022-08-17T10:25:26.113Z,49.67
2022-08-17T10:28:07.494Z,50.84
2022-08-17T10:30:48.106Z,49.02
2022-08-17T10:33:23.624Z,47.72
2022-08-17T10:36:10.931Z,48.24
2022-08-17T10:38:47.314Z,48.01
2022-08-17T10:41:33.900Z,46.33
2022-08-17T10:44:38.064Z,46.30
2022-08-17T10:47:09.337Z,46.01
2022-08-17T10:49:49.534Z,45.16
2022-08-17T10:52:22.152Z,45.82
2022-08-17T10:54:51.562Z,44.48
2022-08-17T10:57:35.434Z,44.62
2022-08-17T11:00:27.437Z,45.37
2022-08-17T11:02:55.831Z,42.45
2022-08-17T11:05:43.827Z,42.18
2022-08-17T11:08:38.607Z,42.34
2022-08-17T11:11:35.969Z,45.32
2022-08-17T11:14:39.858Z,46.92
2022-08-17T11:17:21.546Z,47.50
2022-08-17T11:20:09.327Z,47.09
2022-08-17T11:22:35.762Z,47.36
2022-08-17T11:25:38.411Z,50.32
2022-08-17T11:28:08.672Z,50.21
2022-08-17T11:30:51.370Z,50.93
2022-08-17T11:33:29.890Z,47.39
2022-08-17T11:36:12.861Z,50.34
2022-08-17T11:38:46.654Z,49.00
2022-08-17T11:41:32.350Z,48.77
2022-08-17T11:44:04.611Z,49.29
2022-08-17T11:47:08.468Z,48.61
2022-08-17T11:50:32.328Z,49.95
2022-08-17T11:52:58.826Z,48.96
2022-08-17T11:55:39.396Z,47.81
2022-08-17T11:58:27.051Z,47.76
2022-08-17T12:00:56.671Z,46.29
2022-08-17T12:03:33.007Z,45.74
2022-08-17T12:06:04.464Z,45.28
2022-08-17T12:08:32.658Z,46.87
2022-08-17T12:11:04.114Z,47.43
2022-08-17T12:13:38.580Z,45.68
2022-08-17T12:16:07.297Z,46.35
2022-08-17T12:18:37.529Z,45.66
2022-08-17T12:21:25.847Z,47.21
2022-08-17T12:23:52.276Z,49.21
2022-08-17T12:26:22.692Z,49.78
2022-08-17T12:28:57.247Z,49.24
2022-08-17T12:31:47.218Z,46.09
2022-08-17T12:34:18.954Z,46.44
2022-08-17T12:36:47.181Z,47.30
2022-08-17T12:39:21.412Z,46.56
2022-08-17T12:41:56.306Z,46.50
2022-08-17T12:44:28.554Z,45.29
2022-08-17T12:47:04.602Z,45.33
2022-08-17T12:49:36.950Z,46.42
2022-08-17T12:52:23.651Z,46.97
2022-08-17T12:55:22.613Z,46.80
2022-08-17T12:57:58.401Z,48.76
2022-08-17T13:00:30.748Z,49.72
2022-08-17T13:03:02.637Z,49.72
2022-08-17T13:05:30.526Z,50.09
2022-08-17T13:07:59.273Z,49.60
2022-08-17T13:10:32.784Z,48.76
2022-08-17T13:13:04.892Z,48.42
2022-08-17T13:15:31.356Z,48.91
2022-08-17T13:18:06.826Z,49.54
2022-08-17T13:20:34.629Z,49.99
2022-08-17T13:23:11.478Z,50.03
2022-08-17T13:25:38.919Z,49.65
2022-08-17T13:28:05.394Z,49.84
2022-08-17T13:30:33.354Z,49.39
2022-08-17T13:33:04.092Z,49.93
2022-08-17T13:35:44.245Z,49.98
2022-08-17T13:38:39.475Z,50.85
2022-08-17T13:41:07.454Z,49.94
2022-08-17T13:43:40.048Z,50.76
2022-08-17T13:46:12.874Z,50.33
2022-08-17T13:48:39.654Z,50.50
2022-08-17T13:51:14.193Z,49.59
2022-08-17T13:53:40.638Z,49.96
2022-08-17T13:56:37.558Z,50.75
2022-08-17T13:59:01.516Z,54.58
2022-08-17T14:01:39.560Z,54.01
2022-08-17T14:04:19.969Z,55.82
2022-08-17T14:06:52.817Z,56.74
2022-08-17T14:09:26.931Z,55.77
2022-08-17T14:11:54.665Z,56.35
2022-08-17T14:14:23.324Z,56.49
2022-08-17T14:16:51.322Z,56.95
2022-08-17T14:19:18.127Z,57.61
2022-08-17T14:21:46.770Z,55.91
2022-08-17T14:24:28.524Z,57.26
2022-08-17T14:26:55.713Z,56.93
2022-08-17T14:29:23.766Z,57.31
2022-08-17T14:31:54.339Z,58.25
2022-08-17T14:34:22.706Z,58.54
2022-08-17T14:36:49.318Z,58.96
2022-08-17T14:39:16.491Z,58.59
2022-08-17T14:41:43.006Z,59.16
2022-08-17T14:44:13.076Z,59.39
2022-08-17T14:46:41.146Z,59.28
2022-08-17T14:49:08.914Z,58.73
2022-08-17T14:51:39.712Z,60.16
2022-08-17T14:54:10.568Z,59.87
2022-08-17T14:56:38.282Z,59.26
2022-08-17T14:59:05.048Z,59.14
2022-08-17T15:01:31.718Z,59.99
2022-08-17T15:04:01.031Z,58.28
2022-08-17T15:06:27.601Z,60.46
2022-08-17T15:08:54.493Z,62.80
2022-08-17T15:11:21.013Z,62.28
2022-08-17T15:13:52.875Z,64.37
2022-08-17T15:16:20.497Z,64.60
2022-08-17T15:18:47.179Z,63.62
2022-08-17T15:21:14.854Z,64.49
2022-08-17T15:23:41.438Z,63.23
2022-08-17T15:26:10.373Z,64.13
2022-08-17T15:28:37.721Z,63.54
2022-08-17T15:31:05.741Z,63.10
2022-08-17T15:33:32.636Z,64.15
2022-08-17T15:36:02.070Z,64.43
2022-08-17T15:38:29.385Z,64.40
2022-08-17T15:40:57.607Z,63.47
2022-08-17T15:43:32.475Z,64.50
2022-08-17T15:46:05.349Z,63.42
2022-08-17T15:48:43.013Z,62.21
2022-08-17T15:51:10.761Z,61.88
2022-08-17T15:53:37.826Z,61.24
2022-08-17T15:56:05.445Z,61.80
2022-08-17T15:58:36.126Z,64.62
2022-08-17T16:01:14.114Z,63.53
2022-08-17T16:04:03.827Z,64.21
2022-08-17T16:06:32.991Z,64.07
2022-08-17T16:09:00.450Z,63.99
2022-08-17T16:11:26.965Z,64.11
2022-08-17T16:13:55.128Z,62.55
2022-08-17T16:16:23.692Z,64.12
2022-08-17T16:18:53.659Z,63.53
2022-08-17T16:21:25.815Z,65.33
2022-08-17T16:24:05.417Z,64.86
2022-08-17T16:26:39.647Z,63.79
2022-08-17T16:29:06.632Z,63.59
2022-08-17T16:31:34.212Z,62.72
2022-08-17T16:34:16.427Z,63.00
2022-08-17T16:36:55.364Z,62.18
2022-08-17T16:39:24.559Z,63.34
2022-08-17T16:41:57.829Z,62.18
2022-08-17T16:44:25.703Z,62.04
2022-08-17T16:46:52.231Z,61.89
2022-08-17T16:49:36.238Z,61.88
2022-08-17T16:52:06.358Z,61.27
2022-08-17T16:54:33.473Z,60.09
2022-08-17T16:57:00.244Z,59.62
2022-08-17T16:59:31.818Z,61.01
2022-08-17T17:02:10.965Z,60.70
2022-08-17T17:04:51.970Z,61.46
2022-08-17T17:07:39.937Z,61.03
2022-08-17T17:10:15.682Z,63.55
2022-08-17T17:13:02.871Z,62.58
2022-08-17T17:15:41.437Z,62.31
2022-08-17T17:18:12.022Z,63.34
2022-08-17T17:20:45.853Z,63.59
2022-08-17T17:23:20.184Z,63.02
2022-08-17T17:26:03.617Z,63.72
2022-08-17T17:28:56.373Z,64.53
2022-08-17T17:31:25.711Z,63.94
2022-08-17T17:33:55.970Z,63.17
2022-08-17T17:36:26.984Z,62.86
2022-08-17T17:38:59.301Z,64.47
2022-08-17T17:41:43.327Z,63.90
2022-08-17T17:44:13.310Z,63.72
2022-08-17T17:46:48.660Z,62.98
2022-08-17T17:49:17.652Z,63.05
2022-08-17T17:52:06.281Z,63.73
2022-08-17T17:54:56.009Z,65.39
2022-08-17T17:57:42.220Z,64.71
2022-08-17T18:00:37.859Z,63.86
2022-08-17T18:03:25.534Z,63.91
2022-08-17T18:06:10.337Z,64.71
2022-08-17T18:08:57.962Z,63.92
2022-08-17T18:11:42.040Z,63.97
2022-08-17T18:14:27.203Z,63.58
2022-08-17T18:16:56.844Z,64.04
2022-08-17T18:19:25.612Z,64.20
2022-08-17T18:22:03.352Z,63.78
2022-08-17T18:24:37.854Z,63.68
2022-08-17T18:27:19.122Z,63.60
2022-08-17T18:29:47.462Z,63.30
2022-08-17T18:32:38.225Z,63.82
2022-08-17T18:35:16.550Z,63.46
2022-08-17T18:37:45.993Z,62.98
2022-08-17T18:40:19.523Z,62.68
2022-08-17T18:43:21.636Z,62.39
2022-08-17T18:45:50.433Z,62.63
2022-08-17T18:48:59.244Z,61.99
2022-08-17T18:51:41.780Z,61.92
2022-08-17T18:54:17.853Z,61.58
2022-08-17T18:56:55.933Z,61.44
2022-08-17T18:59:39.901Z,61.68
2022-08-17T19:02:18.195Z,62.11
2022-08-17T19:05:27.744Z,61.48
2022-08-17T19:07:55.048Z,62.12
2022-08-17T19:10:25.746Z,63.34
2022-08-17T19:13:00.493Z,65.46
2022-08-17T19:15:35.482Z,65.75
2022-08-17T19:18:47.363Z,67.28
2022-08-17T19:21:27.489Z,68.17
2022-08-17T19:23:59.424Z,68.59
2022-08-17T19:26:54.419Z,68.29
2022-08-17T19:29:25.609Z,68.92
2022-08-17T19:31:55.182Z,71.21
2022-08-17T19:34:30.051Z,70.55
2022-08-17T19:37:07.497Z,71.39
2022-08-17T19:39:55.962Z,74.96
2022-08-17T19:42:37.211Z,77.97
2022-08-17T19:45:12.226Z,80.83
2022-08-17T19:47:55.405Z,81.13
2022-08-17T19:50:32.050Z,81.77
2022-08-17T19:53:41.766Z,82.18
2022-08-17T19:56:21.367Z,86.06
2022-08-17T19:59:26.357Z,85.32
2022-08-17T20:02:21.139Z,87.23
2022-08-17T20:04:49.856Z,90.50
2022-08-17T20:07:26.546Z,91.25
2022-08-17T20:10:00.253Z,88.99
2022-08-17T20:12:30.806Z,85.95
2022-08-17T20:15:18.151Z,84.14
2022-08-17T20:17:46.446Z,83.94
2022-08-17T20:20:27.152Z,85.72
2022-08-17T20:23:06.038Z,85.74
2022-08-17T20:25:41.935Z,86.76
2022-08-17T20:28:30.609Z,86.96
2022-08-17T20:30:58.172Z,87.40
2022-08-17T20:33:29.823Z,85.82
2022-08-17T20:36:11.130Z,86.35
2022-08-17T20:38:43.870Z,87.14
2022-08-17T20:41:16.858Z,88.73
2022-08-17T20:44:04.911Z,88.26
2022-08-17T20:46:31.431Z,90.85
2022-08-17T20:49:14.701Z,92.44
2022-08-17T20:52:01.449Z,91.88
2022-08-17T20:54:42.774Z,92.79
2022-08-17T20:57:14.357Z,92.25
2022-08-17T20:59:44.044Z,91.24
2022-08-17T21:02:19.509Z,91.55
2022-08-17T21:04:56.310Z,93.58
2022-08-17T21:07:43.610Z,92.80
2022-08-17T21:10:16.020Z,94.45
2022-08-17T21:12:54.834Z,92.93
2022-08-17T21:15:35.445Z,92.09
2022-08-17T21:18:14.449Z,91.49
2022-08-17T21:21:06.692Z,91.70
2022-08-17T21:23:45.037Z,90.95
2022-08-17T21:26:30.601Z,92.01
2022-08-17T21:29:29.683Z,92.28
2022-08-17T21:32:05.244Z,91.97
2022-08-17T21:34:39.778Z,90.38
2022-08-17T21:37:29.682Z,88.10
2022-08-17T21:40:11.460Z,88.53
2022-08-17T21:42:43.928Z,88.37
2022-08-17T21:45:22.897Z,89.49
2022-08-17T21:48:20.169Z,90.17
2022-08-17T21:51:12.117Z,91.74
2022-08-17T21:53:49.507Z,91.31
2022-08-17T21:56:29.078Z,89.33
2022-08-17T21:59:00.759Z,91.05
2022-08-17T22:01:50.579Z,91.55
2022-08-17T22:04:32.254Z,90.44
2022-08-17T22:07:01.774Z,90.32
2022-08-17T22:09:34.198Z,90.17
2022-08-17T22:12:09.079Z,89.78
2022-08-17T22:14:52.755Z,90.83
2022-08-17T22:17:21.920Z,90.32
2022-08-17T22:20:01.365Z,89.42
2022-08-17T22:22:35.257Z,88.21
2022-08-17T22:25:05.733Z,89.01
2022-08-17T22:27:50.286Z,88.06
2022-08-17T22:30:32.118Z,86.71
2022-08-17T22:33:00.167Z,87.07
2022-08-17T22:35:43.656Z,86.93
2022-08-17T22:38:19.521Z,88.69
2022-08-17T22:40:47.341Z,90.76
2022-08-17T22:43:13.890Z,89.76
2022-08-17T22:48:17.820Z,89.34
2022-08-17T22:50:44.349Z,89.46
2022-08-17T22:53:38.466Z,88.92
2022-08-17T22:56:23.968Z,89.67
2022-08-17T22:59:15.662Z,91.02
2022-08-17T23:01:43.333Z,90.08
2022-08-17T23:04:12.877Z,92.45
2022-08-17T23:06:42.400Z,91.39
2022-08-17T23:09:09.778Z,91.15
2022-08-17T23:11:46.206Z,92.02
2022-08-17T23:14:19.198Z,92.27
2022-08-17T23:16:46.741Z,92.36
2022-08-17T23:19:18.709Z,94.40
2022-08-17T23:21:45.655Z,93.13
2022-08-17T23:24:17.473Z,93.29
2022-08-17T23:26:43.970Z,92.66
2022-08-17T23:29:10.843Z,92.51
2022-08-17T23:31:38.783Z,90.18
2022-08-17T23:34:15.143Z,91.72
2022-08-17T23:36:42.081Z,92.11
2022-08-17T23:39:08.782Z,90.96
2022-08-17T23:41:37.977Z,91.62
2022-08-17T23:44:07.026Z,91.09
2022-08-17T23:46:34.638Z,92.13
2022-08-17T23:49:01.241Z,90.38
2022-08-17T23:51:30.767Z,90.04
2022-08-17T23:54:08.240Z,89.25
2022-08-17T23:56:41.851Z,87.59
2022-08-17T23:59:08.334Z,88.15
